GCM weather

Owen Roberts International Airport
Georgetown, Cayman Islands

Public forecast

Using degrees Celsius for public forecast. Weather courtesy of forecast.io.

Current aviation weather report (METAR) for Owen Roberts International Airport

Retrieved 2020/07/05 16:00 UTC (51 minutes ago):

MWCR 051600Z 07007KT 050V120 9999 FEW018 31/26 Q1016

Aviation forecast (TAF) for Owen Roberts International Airport

Retrieved 2020/07/05 12:18 UTC (5 hours ago):

TAF MWCR 051100Z 0512/0612 10008KT 9999 FEW018 PROB30 TEMPO 0519/0522 9000 SHRA SCT016